KMCB/MCB METAR and TAF weather

Enter ICAO airport designator
Station Type Date Time Source
KMCB METAR 2019/08/18 19:53 UTC NOAA

KMCB 181953Z AUTO 18007KT 10SM SCT050 34/23 A2996 RMK AO2 LTG DSNT NE AND E SLP139 T03390228


Station Type Date Time Source
KMCB Decoded METAR 2019/08/18 19:53 UTC NOAA

Station name not available
Aug 18, 2019 - 03:53 PM EDT / 2019.08.18 1953 UTC
Wind: from the S (180 degrees) at 8 MPH (7 KT):0
Visibility: 10 mile(s):0
Sky conditions: partly cloudy
Weather: Lightning observed
Temperature: 93.0 F (33.9 C)
Heat index: 101.8 F (38.8 C):1
Dew Point: 73.0 F (22.8 C)
Relative Humidity: 52%
Pressure (altimeter): 29.96 in. Hg (1014 hPa)
ob: KMCB 181953Z AUTO 18007KT 10SM SCT050 34/23 A2996 RMK AO2 LTG DSNT NE AND E SLP139 T03390228
cycle: 20

Station Type Date Time Source
KMCB TAF 2019/08/18 18:22 UTC NOAA

TAF KMCB 181720Z 1818/1918 22005KT P6SM VCTS FEW035CB FEW200
FM182300 VRB04KT P6SM VCTS FEW025CB SCT120
FM191200 00000KT 3SM BR FEW025 SCT200
FM191300 00000KT P6SM FEW025 SCT250

Example: see airport list